sensor_id;sensor_type;location;lat;lon;timestamp;pressure;altitude;pressure_sealevel;temperature;humidity
30875;BME280;17581;43.222;27.924;2024-02-14T00:00:38;100276.34;;;11.31;70.34
30875;BME280;17581;43.222;27.924;2024-02-14T00:03:06;100279.59;;;11.25;70.34
30875;BME280;17581;43.222;27.924;2024-02-14T00:05:32;100277.19;;;11.22;70.76
30875;BME280;17581;43.222;27.924;2024-02-14T00:07:57;100265.78;;;11.09;71.33
30875;BME280;17581;43.222;27.924;2024-02-14T00:10:23;100283.34;;;11.03;71.90
30875;BME280;17581;43.222;27.924;2024-02-14T00:12:48;100284.00;;;10.96;72.36
30875;BME280;17581;43.222;27.924;2024-02-14T00:15:14;100272.28;;;10.97;72.59
30875;BME280;17581;43.222;27.924;2024-02-14T00:17:41;100275.34;;;10.92;72.58
30875;BME280;17581;43.222;27.924;2024-02-14T00:20:07;100289.69;;;11.02;72.79
30875;BME280;17581;43.222;27.924;2024-02-14T00:22:35;100289.69;;;11.02;72.97
30875;BME280;17581;43.222;27.924;2024-02-14T00:25:01;100284.47;;;11.01;73.26
30875;BME280;17581;43.222;27.924;2024-02-14T00:27:27;100278.63;;;10.96;73.35
30875;BME280;17581;43.222;27.924;2024-02-14T00:29:53;100276.94;;;10.95;73.95
30875;BME280;17581;43.222;27.924;2024-02-14T00:32:19;100279.47;;;10.96;73.83
30875;BME280;17581;43.222;27.924;2024-02-14T00:34:44;100274.25;;;10.95;74.14
30875;BME280;17581;43.222;27.924;2024-02-14T00:37:10;100268.13;;;10.92;74.76
30875;BME280;17581;43.222;27.924;2024-02-14T00:39:36;100250.84;;;10.85;74.68
30875;BME280;17581;43.222;27.924;2024-02-14T00:42:02;100255.50;;;10.83;74.55
30875;BME280;17581;43.222;27.924;2024-02-14T00:44:27;100272.09;;;10.88;74.98
30875;BME280;17581;43.222;27.924;2024-02-14T00:46:57;100245.13;;;10.69;75.56
30875;BME280;17581;43.222;27.924;2024-02-14T00:49:25;100268.13;;;10.92;75.42
30875;BME280;17581;43.222;27.924;2024-02-14T00:51:51;100272.38;;;10.95;75.40
30875;BME280;17581;43.222;27.924;2024-02-14T00:54:16;100277.91;;;10.93;75.60
30875;BME280;17581;43.222;27.924;2024-02-14T00:56:42;100274.97;;;10.97;75.60
30875;BME280;17581;43.222;27.924;2024-02-14T00:59:07;100281.03;;;10.99;75.81
30875;BME280;17581;43.222;27.924;2024-02-14T01:01:33;100250.13;;;10.83;75.22
30875;BME280;17581;43.222;27.924;2024-02-14T01:03:59;100277.09;;;11.03;75.21
30875;BME280;17581;43.222;27.924;2024-02-14T01:06:25;100274.84;;;11.08;75.37
30875;BME280;17581;43.222;27.924;2024-02-14T01:08:50;100280.09;;;11.09;74.51
30875;BME280;17581;43.222;27.924;2024-02-14T01:11:16;100284.47;;;11.01;74.87
30875;BME280;17581;43.222;27.924;2024-02-14T01:13:41;100288.44;;;11.06;75.13
30875;BME280;17581;43.222;27.924;2024-02-14T01:16:07;100292.81;;;11.07;75.46
30875;BME280;17581;43.222;27.924;2024-02-14T01:18:33;100285.59;;;11.08;75.15
30875;BME280;17581;43.222;27.924;2024-02-14T01:20:58;100284.47;;;11.10;75.03
30875;BME280;17581;43.222;27.924;2024-02-14T01:23:25;100291.31;;;11.14;74.77
30875;BME280;17581;43.222;27.924;2024-02-14T01:25:51;100273.72;;;11.01;74.59
30875;BME280;17581;43.222;27.924;2024-02-14T01:28:17;100270.00;;;11.02;74.07
30875;BME280;17581;43.222;27.924;2024-02-14T01:30:43;100300.63;;;11.10;74.54
30875;BME280;17581;43.222;27.924;2024-02-14T01:33:08;100294.69;;;11.07;74.22
30875;BME280;17581;43.222;27.924;2024-02-14T01:35:34;100302.75;;;11.07;74.50
30875;BME280;17581;43.222;27.924;2024-02-14T01:37:59;100276.66;;;10.98;74.11
30875;BME280;17581;43.222;27.924;2024-02-14T01:40:26;100285.88;;;11.05;74.48
30875;BME280;17581;43.222;27.924;2024-02-14T01:42:51;100309.75;;;11.19;74.18
30875;BME280;17581;43.222;27.924;2024-02-14T01:45:17;100297.28;;;11.18;74.50
30875;BME280;17581;43.222;27.924;2024-02-14T01:47:44;100299.25;;;11.16;74.09
30875;BME280;17581;43.222;27.924;2024-02-14T01:50:10;100307.06;;;11.19;74.34
30875;BME280;17581;43.222;27.924;2024-02-14T01:52:37;100316.81;;;11.20;73.93
30875;BME280;17581;43.222;27.924;2024-02-14T01:55:04;100306.91;;;11.20;73.90
30875;BME280;17581;43.222;27.924;2024-02-14T01:57:31;100305.19;;;11.19;74.37
30875;BME280;17581;43.222;27.924;2024-02-14T01:59:58;100315.97;;;11.19;74.50
30875;BME280;17581;43.222;27.924;2024-02-14T02:02:28;100311.00;;;11.15;74.81
30875;BME280;17581;43.222;27.924;2024-02-14T02:04:53;100293.28;;;11.12;74.40
30875;BME280;17581;43.222;27.924;2024-02-14T02:07:19;100287.00;;;11.02;73.99
30875;BME280;17581;43.222;27.924;2024-02-14T02:09:46;100298.09;;;11.09;73.94
30875;BME280;17581;43.222;27.924;2024-02-14T02:12:11;100286.69;;;10.96;74.46
30875;BME280;17581;43.222;27.924;2024-02-14T02:14:37;100310.03;;;11.16;74.44
30875;BME280;17581;43.222;27.924;2024-02-14T02:17:03;100304.06;;;11.12;74.07
30875;BME280;17581;43.222;27.924;2024-02-14T02:19:33;100308.31;;;11.15;73.65
30875;BME280;17581;43.222;27.924;2024-02-14T02:21:59;100308.59;;;11.12;73.24
30875;BME280;17581;43.222;27.924;2024-02-14T02:24:25;100305.19;;;11.10;73.43
30875;BME280;17581;43.222;27.924;2024-02-14T02:26:50;100316.22;;;11.07;73.49
30875;BME280;17581;43.222;27.924;2024-02-14T02:29:16;100324.56;;;11.04;73.22
30875;BME280;17581;43.222;27.924;2024-02-14T02:31:41;100309.09;;;10.96;72.81
30875;BME280;17581;43.222;27.924;2024-02-14T02:34:07;100319.13;;;10.94;72.72
30875;BME280;17581;43.222;27.924;2024-02-14T02:36:36;100330.03;;;10.92;72.82
30875;BME280;17581;43.222;27.924;2024-02-14T02:39:03;100319.47;;;10.80;72.83
30875;BME280;17581;43.222;27.924;2024-02-14T02:41:30;100331.28;;;10.68;72.71
30875;BME280;17581;43.222;27.924;2024-02-14T02:43:57;100335.44;;;10.72;73.13
30875;BME280;17581;43.222;27.924;2024-02-14T02:46:22;100341.78;;;10.71;72.70
30875;BME280;17581;43.222;27.924;2024-02-14T02:48:48;100338.59;;;10.56;72.46
30875;BME280;17581;43.222;27.924;2024-02-14T02:51:16;100334.88;;;10.48;72.64
30875;BME280;17581;43.222;27.924;2024-02-14T02:53:43;100349.00;;;10.50;73.21
30875;BME280;17581;43.222;27.924;2024-02-14T02:56:08;100353.28;;;10.52;73.19
30875;BME280;17581;43.222;27.924;2024-02-14T02:58:33;100354.72;;;10.56;73.21
30875;BME280;17581;43.222;27.924;2024-02-14T03:00:59;100362.25;;;10.62;73.19
30875;BME280;17581;43.222;27.924;2024-02-14T03:03:25;100358.72;;;10.62;72.65
30875;BME280;17581;43.222;27.924;2024-02-14T03:05:52;100318.94;;;10.35;72.46
30875;BME280;17581;43.222;27.924;2024-02-14T03:08:20;100318.66;;;10.38;72.36
30875;BME280;17581;43.222;27.924;2024-02-14T03:10:47;100342.78;;;10.49;72.28
30875;BME280;17581;43.222;27.924;2024-02-14T03:13:12;100351.31;;;10.54;72.29
30875;BME280;17581;43.222;27.924;2024-02-14T03:15:38;100357.50;;;10.45;72.00
30875;BME280;17581;43.222;27.924;2024-02-14T03:18:04;100328.28;;;10.20;71.55
30875;BME280;17581;43.222;27.924;2024-02-14T03:20:35;100366.78;;;10.41;71.52
30875;BME280;17581;43.222;27.924;2024-02-14T03:23:02;100322.06;;;10.19;71.17
30875;BME280;17581;43.222;27.924;2024-02-14T03:25:29;100358.31;;;10.25;71.36
30875;BME280;17581;43.222;27.924;2024-02-14T03:27:55;100367.50;;;10.22;71.62
30875;BME280;17581;43.222;27.924;2024-02-14T03:30:22;100358.97;;;10.17;71.72
30875;BME280;17581;43.222;27.924;2024-02-14T03:32:49;100369.84;;;10.16;71.60
30875;BME280;17581;43.222;27.924;2024-02-14T03:35:14;100337.06;;;9.90;71.94
30875;BME280;17581;43.222;27.924;2024-02-14T03:37:41;100363.00;;;10.01;71.57
30875;BME280;17581;43.222;27.924;2024-02-14T03:40:08;100382.41;;;10.15;71.54
30875;BME280;17581;43.222;27.924;2024-02-14T03:42:35;100365.19;;;10.18;71.55
30875;BME280;17581;43.222;27.924;2024-02-14T03:45:00;100353.03;;;9.92;71.09
30875;BME280;17581;43.222;27.924;2024-02-14T03:47:31;100375.94;;;10.07;71.55
30875;BME280;17581;43.222;27.924;2024-02-14T03:49:58;100378.88;;;10.04;71.09
30875;BME280;17581;43.222;27.924;2024-02-14T03:52:24;100396.38;;;9.98;71.46
30875;BME280;17581;43.222;27.924;2024-02-14T03:54:50;100406.25;;;9.98;71.61
30875;BME280;17581;43.222;27.924;2024-02-14T03:57:19;100405.75;;;10.04;71.59
30875;BME280;17581;43.222;27.924;2024-02-14T03:59:46;100423.38;;;9.97;71.80
30875;BME280;17581;43.222;27.924;2024-02-14T04:02:11;100396.09;;;9.58;72.13
30875;BME280;17581;43.222;27.924;2024-02-14T04:04:41;100416.97;;;9.66;72.63
30875;BME280;17581;43.222;27.924;2024-02-14T04:07:07;100403.66;;;9.64;72.82
30875;BME280;17581;43.222;27.924;2024-02-14T04:09:35;100428.03;;;9.83;72.98
30875;BME280;17581;43.222;27.924;2024-02-14T04:12:01;100425.09;;;9.87;72.76
30875;BME280;17581;43.222;27.924;2024-02-14T04:14:27;100436.56;;;10.00;72.71
30875;BME280;17581;43.222;27.924;2024-02-14T04:16:52;100438.63;;;9.85;72.01
30875;BME280;17581;43.222;27.924;2024-02-14T04:19:18;100435.13;;;9.84;71.85
30875;BME280;17581;43.222;27.924;2024-02-14T04:21:44;100435.38;;;9.70;72.39
30875;BME280;17581;43.222;27.924;2024-02-14T04:24:09;100422.66;;;9.72;72.74
30875;BME280;17581;43.222;27.924;2024-02-14T04:26:35;100443.50;;;9.91;72.43
30875;BME280;17581;43.222;27.924;2024-02-14T04:29:01;100439.25;;;10.00;71.80
30875;BME280;17581;43.222;27.924;2024-02-14T04:31:27;100442.69;;;9.91;71.84
30875;BME280;17581;43.222;27.924;2024-02-14T04:33:58;100428.66;;;9.76;71.91
30875;BME280;17581;43.222;27.924;2024-02-14T04:36:23;100434.88;;;9.76;71.76
30875;BME280;17581;43.222;27.924;2024-02-14T04:38:50;100418.53;;;9.57;71.95
30875;BME280;17581;43.222;27.924;2024-02-14T04:41:16;100350.50;;;9.14;72.30
30875;BME280;17581;43.222;27.924;2024-02-14T04:43:42;100447.59;;;9.74;72.24
30875;BME280;17581;43.222;27.924;2024-02-14T04:46:08;100445.88;;;9.73;72.05
30875;BME280;17581;43.222;27.924;2024-02-14T04:48:36;100445.63;;;9.65;72.19
30875;BME280;17581;43.222;27.924;2024-02-14T04:51:03;100387.34;;;9.23;72.35
30875;BME280;17581;43.222;27.924;2024-02-14T04:53:32;100408.78;;;9.34;72.87
30875;BME280;17581;43.222;27.924;2024-02-14T04:55:57;100449.06;;;9.56;72.54
30875;BME280;17581;43.222;27.924;2024-02-14T04:58:23;100425.38;;;9.39;72.76
30875;BME280;17581;43.222;27.924;2024-02-14T05:00:49;100467.09;;;9.54;72.86
30875;BME280;17581;43.222;27.924;2024-02-14T05:03:15;100473.19;;;9.45;72.76
30875;BME280;17581;43.222;27.924;2024-02-14T05:05:41;100470.03;;;9.40;73.16
30875;BME280;17581;43.222;27.924;2024-02-14T05:08:07;100480.53;;;9.43;73.42
30875;BME280;17581;43.222;27.924;2024-02-14T05:10:32;100462.72;;;9.20;73.37
30875;BME280;17581;43.222;27.924;2024-02-14T05:12:58;100484.44;;;9.28;73.71
30875;BME280;17581;43.222;27.924;2024-02-14T05:15:24;100493.81;;;9.34;74.07
30875;BME280;17581;43.222;27.924;2024-02-14T05:17:50;100498.56;;;9.30;74.12
30875;BME280;17581;43.222;27.924;2024-02-14T05:20:16;100511.03;;;9.42;73.65
30875;BME280;17581;43.222;27.924;2024-02-14T05:22:42;100500.81;;;9.47;73.44
30875;BME280;17581;43.222;27.924;2024-02-14T05:25:08;100515.66;;;9.51;73.24
30875;BME280;17581;43.222;27.924;2024-02-14T05:27:37;100499.22;;;9.45;73.07
30875;BME280;17581;43.222;27.924;2024-02-14T05:30:03;100500.44;;;9.41;73.38
30875;BME280;17581;43.222;27.924;2024-02-14T05:32:34;100528.75;;;9.56;72.72
30875;BME280;17581;43.222;27.924;2024-02-14T05:35:00;100528.25;;;9.62;72.70
30875;BME280;17581;43.222;27.924;2024-02-14T05:37:25;100523.38;;;9.56;72.57
30875;BME280;17581;43.222;27.924;2024-02-14T05:39:54;100536.19;;;9.52;73.18
30875;BME280;17581;43.222;27.924;2024-02-14T05:42:20;100526.53;;;9.50;73.46
30875;BME280;17581;43.222;27.924;2024-02-14T05:44:47;100533.63;;;9.62;73.46
30875;BME280;17581;43.222;27.924;2024-02-14T05:47:12;100525.44;;;9.63;72.92
30875;BME280;17581;43.222;27.924;2024-02-14T05:49:41;100550.97;;;9.80;72.49
30875;BME280;17581;43.222;27.924;2024-02-14T05:52:07;100549.50;;;9.76;72.16
30875;BME280;17581;43.222;27.924;2024-02-14T05:54:33;100530.81;;;9.63;71.91
30875;BME280;17581;43.222;27.924;2024-02-14T05:56:59;100550.84;;;9.70;72.39
30875;BME280;17581;43.222;27.924;2024-02-14T05:59:26;100550.84;;;9.81;71.62
30875;BME280;17581;43.222;27.924;2024-02-14T06:01:51;100539.50;;;9.78;71.66
30875;BME280;17581;43.222;27.924;2024-02-14T06:04:18;100538.53;;;9.68;71.70
30875;BME280;17581;43.222;27.924;2024-02-14T06:06:43;100555.25;;;9.71;71.90
30875;BME280;17581;43.222;27.924;2024-02-14T06:09:09;100565.75;;;9.74;71.92
30875;BME280;17581;43.222;27.924;2024-02-14T06:11:37;100554.63;;;9.57;71.93
30875;BME280;17581;43.222;27.924;2024-02-14T06:14:08;100525.69;;;9.38;71.85
30875;BME280;17581;43.222;27.924;2024-02-14T06:16:34;100569.88;;;9.67;72.22
30875;BME280;17581;43.222;27.924;2024-02-14T06:19:00;100576.13;;;9.68;72.02
30875;BME280;17581;43.222;27.924;2024-02-14T06:21:26;100568.66;;;9.60;71.88
30875;BME280;17581;43.222;27.924;2024-02-14T06:23:53;100573.66;;;9.65;71.94
30875;BME280;17581;43.222;27.924;2024-02-14T06:26:19;100584.28;;;9.66;72.18
30875;BME280;17581;43.222;27.924;2024-02-14T06:28:45;100578.31;;;9.63;72.70
30875;BME280;17581;43.222;27.924;2024-02-14T06:31:10;100569.63;;;9.59;72.45
30875;BME280;17581;43.222;27.924;2024-02-14T06:33:36;100589.91;;;9.74;72.16
30875;BME280;17581;43.222;27.924;2024-02-14T06:36:02;100598.69;;;9.76;71.96
30875;BME280;17581;43.222;27.924;2024-02-14T06:38:28;100604.94;;;9.66;72.06
30875;BME280;17581;43.222;27.924;2024-02-14T06:40:53;100614.81;;;9.65;72.57
30875;BME280;17581;43.222;27.924;2024-02-14T06:43:19;100601.09;;;9.57;72.89
30875;BME280;17581;43.222;27.924;2024-02-14T06:45:45;100597.94;;;9.63;72.99
30875;BME280;17581;43.222;27.924;2024-02-14T06:48:11;100614.19;;;9.62;72.95
30875;BME280;17581;43.222;27.924;2024-02-14T06:50:36;100609.19;;;9.68;73.16
30875;BME280;17581;43.222;27.924;2024-02-14T06:53:02;100592.22;;;9.68;73.01
30875;BME280;17581;43.222;27.924;2024-02-14T06:55:28;100595.06;;;9.77;72.86
30875;BME280;17581;43.222;27.924;2024-02-14T06:57:54;100606.91;;;9.86;72.12
30875;BME280;17581;43.222;27.924;2024-02-14T07:00:20;100599.94;;;9.95;71.75
30875;BME280;17581;43.222;27.924;2024-02-14T07:02:46;100606.53;;;10.02;71.41
30875;BME280;17581;43.222;27.924;2024-02-14T07:05:13;100606.41;;;10.03;70.86
30875;BME280;17581;43.222;27.924;2024-02-14T07:07:40;100576.50;;;9.85;70.71
30875;BME280;17581;43.222;27.924;2024-02-14T07:10:07;100608.75;;;9.97;71.52
30875;BME280;17581;43.222;27.924;2024-02-14T07:12:33;100609.09;;;10.03;71.33
30875;BME280;17581;43.222;27.924;2024-02-14T07:14:58;100597.28;;;10.17;71.11
30875;BME280;17581;43.222;27.924;2024-02-14T07:17:24;100597.53;;;10.25;71.19
30875;BME280;17581;43.222;27.924;2024-02-14T07:19:49;100594.34;;;10.42;70.19
30875;BME280;17581;43.222;27.924;2024-02-14T07:22:16;100615.78;;;10.64;69.66
30875;BME280;17581;43.222;27.924;2024-02-14T07:24:43;100618.22;;;10.78;68.63
30875;BME280;17581;43.222;27.924;2024-02-14T07:27:09;100625.91;;;10.83;68.52
30875;BME280;17581;43.222;27.924;2024-02-14T07:29:34;100615.97;;;10.95;67.83
30875;BME280;17581;43.222;27.924;2024-02-14T07:32:02;100582.25;;;10.79;67.64
30875;BME280;17581;43.222;27.924;2024-02-14T07:34:27;100589.84;;;10.85;67.46
30875;BME280;17581;43.222;27.924;2024-02-14T07:36:53;100579.66;;;10.89;67.21
30875;BME280;17581;43.222;27.924;2024-02-14T07:39:18;100615.06;;;11.05;66.51
30875;BME280;17581;43.222;27.924;2024-02-14T07:41:44;100591.06;;;10.81;66.72
30875;BME280;17581;43.222;27.924;2024-02-14T07:44:09;100606.94;;;10.84;66.80
30875;BME280;17581;43.222;27.924;2024-02-14T07:46:35;100617.97;;;10.81;67.02
30875;BME280;17581;43.222;27.924;2024-02-14T07:49:01;100627.97;;;10.79;67.02
30875;BME280;17581;43.222;27.924;2024-02-14T07:51:26;100627.75;;;10.71;67.90
30875;BME280;17581;43.222;27.924;2024-02-14T07:53:54;100621.41;;;10.61;67.88
30875;BME280;17581;43.222;27.924;2024-02-14T07:56:19;100619.22;;;10.66;68.53
30875;BME280;17581;43.222;27.924;2024-02-14T07:58:45;100618.00;;;10.59;67.42
30875;BME280;17581;43.222;27.924;2024-02-14T08:01:11;100638.66;;;10.70;68.01
30875;BME280;17581;43.222;27.924;2024-02-14T08:03:36;100612.78;;;10.58;67.52
30875;BME280;17581;43.222;27.924;2024-02-14T08:06:02;100641.94;;;10.73;67.43
30875;BME280;17581;43.222;27.924;2024-02-14T08:08:27;100626.66;;;10.74;67.34
30875;BME280;17581;43.222;27.924;2024-02-14T08:10:53;100606.53;;;10.57;67.29
30875;BME280;17581;43.222;27.924;2024-02-14T08:13:19;100643.03;;;10.82;67.01
30875;BME280;17581;43.222;27.924;2024-02-14T08:15:45;100631.16;;;10.84;66.72
30875;BME280;17581;43.222;27.924;2024-02-14T08:18:11;100632.50;;;10.90;66.71
30875;BME280;17581;43.222;27.924;2024-02-14T08:20:37;100645.19;;;10.99;66.18
30875;BME280;17581;43.222;27.924;2024-02-14T08:23:03;100643.69;;;11.06;66.19
30875;BME280;17581;43.222;27.924;2024-02-14T08:25:29;100645.91;;;11.01;65.53
30875;BME280;17581;43.222;27.924;2024-02-14T08:27:55;100631.63;;;10.89;65.76
30875;BME280;17581;43.222;27.924;2024-02-14T08:30:21;100651.53;;;10.98;65.86
30875;BME280;17581;43.222;27.924;2024-02-14T08:32:47;100652.28;;;10.89;65.64
30875;BME280;17581;43.222;27.924;2024-02-14T08:35:12;100651.94;;;10.82;65.40
30875;BME280;17581;43.222;27.924;2024-02-14T08:37:39;100650.16;;;10.72;65.59
30875;BME280;17581;43.222;27.924;2024-02-14T08:40:06;100640.50;;;10.58;65.93
30875;BME280;17581;43.222;27.924;2024-02-14T08:42:35;100661.75;;;10.61;66.12
30875;BME280;17581;43.222;27.924;2024-02-14T08:45:01;100649.78;;;10.65;66.70
30875;BME280;17581;43.222;27.924;2024-02-14T08:47:26;100626.28;;;10.67;66.35
30875;BME280;17581;43.222;27.924;2024-02-14T08:49:52;100641.53;;;10.89;65.38
30875;BME280;17581;43.222;27.924;2024-02-14T08:52:17;100649.25;;;10.93;64.95
30875;BME280;17581;43.222;27.924;2024-02-14T08:54:44;100625.78;;;10.84;64.95
30875;BME280;17581;43.222;27.924;2024-02-14T08:57:09;100656.91;;;10.98;64.49
30875;BME280;17581;43.222;27.924;2024-02-14T08:59:35;100649.25;;;10.93;64.54
30875;BME280;17581;43.222;27.924;2024-02-14T09:02:00;100665.38;;;10.93;64.35
30875;BME280;17581;43.222;27.924;2024-02-14T09:04:26;100624.22;;;10.71;64.43
30875;BME280;17581;43.222;27.924;2024-02-14T09:06:52;100662.47;;;10.85;64.81
30875;BME280;17581;43.222;27.924;2024-02-14T09:09:18;100649.28;;;10.71;65.25
30875;BME280;17581;43.222;27.924;2024-02-14T09:11:45;100645.25;;;10.66;65.63
30875;BME280;17581;43.222;27.924;2024-02-14T09:14:14;100636.72;;;10.61;65.72
30875;BME280;17581;43.222;27.924;2024-02-14T09:16:40;100644.91;;;10.59;65.71
30875;BME280;17581;43.222;27.924;2024-02-14T09:19:05;100646.88;;;10.57;65.65
30875;BME280;17581;43.222;27.924;2024-02-14T09:21:33;100629.25;;;10.53;65.82
30875;BME280;17581;43.222;27.924;2024-02-14T09:24:01;100643.34;;;10.46;66.33
30875;BME280;17581;43.222;27.924;2024-02-14T09:26:27;100611.72;;;10.27;66.21
30875;BME280;17581;43.222;27.924;2024-02-14T09:28:52;100640.91;;;10.43;66.67
30875;BME280;17581;43.222;27.924;2024-02-14T09:31:19;100632.22;;;10.39;66.73
30875;BME280;17581;43.222;27.924;2024-02-14T09:33:46;100592.88;;;10.16;66.91
30875;BME280;17581;43.222;27.924;2024-02-14T09:36:13;100639.56;;;10.48;67.12
30875;BME280;17581;43.222;27.924;2024-02-14T09:38:39;100629.91;;;10.46;66.52
30875;BME280;17581;43.222;27.924;2024-02-14T09:41:11;100617.53;;;10.43;66.36
30875;BME280;17581;43.222;27.924;2024-02-14T09:43:44;100628.41;;;10.53;66.37
30875;BME280;17581;43.222;27.924;2024-02-14T09:46:14;100632.69;;;10.55;66.19
30875;BME280;17581;43.222;27.924;2024-02-14T09:48:49;100621.91;;;10.55;66.23
30875;BME280;17581;43.222;27.924;2024-02-14T09:51:15;100637.56;;;10.61;66.09
30875;BME280;17581;43.222;27.924;2024-02-14T09:53:41;100635.97;;;10.59;66.07
30875;BME280;17581;43.222;27.924;2024-02-14T09:56:11;100610.22;;;10.45;66.57
30875;BME280;17581;43.222;27.924;2024-02-14T09:58:40;100611.44;;;10.41;65.92
30875;BME280;17581;43.222;27.924;2024-02-14T10:01:05;100644.16;;;10.68;65.58
30875;BME280;17581;43.222;27.924;2024-02-14T10:03:32;100658.31;;;10.70;65.78
30875;BME280;17581;43.222;27.924;2024-02-14T10:05:59;100661.75;;;10.72;65.65
30875;BME280;17581;43.222;27.924;2024-02-14T10:08:25;100645.00;;;10.69;65.48
30875;BME280;17581;43.222;27.924;2024-02-14T10:10:51;100635.38;;;10.55;65.24
30875;BME280;17581;43.222;27.924;2024-02-14T10:13:17;100655.78;;;10.69;65.82
30875;BME280;17581;43.222;27.924;2024-02-14T10:15:43;100651.50;;;10.66;65.76
30875;BME280;17581;43.222;27.924;2024-02-14T10:18:09;100681.31;;;10.74;65.61
30875;BME280;17581;43.222;27.924;2024-02-14T10:20:35;100672.75;;;10.80;65.57
30875;BME280;17581;43.222;27.924;2024-02-14T10:23:07;100675.78;;;10.87;65.57
30875;BME280;17581;43.222;27.924;2024-02-14T10:25:36;100671.03;;;10.90;65.40
30875;BME280;17581;43.222;27.924;2024-02-14T10:28:07;100664.88;;;11.00;65.28
30875;BME280;17581;43.222;27.924;2024-02-14T10:30:37;100671.72;;;11.04;65.49
30875;BME280;17581;43.222;27.924;2024-02-14T10:33:06;100667.53;;;11.11;64.61
30875;BME280;17581;43.222;27.924;2024-02-14T10:35:34;100658.38;;;11.02;64.41
30875;BME280;17581;43.222;27.924;2024-02-14T10:38:02;100668.75;;;11.18;64.66
30875;BME280;17581;43.222;27.924;2024-02-14T10:40:28;100679.00;;;11.24;64.50
30875;BME280;17581;43.222;27.924;2024-02-14T10:42:55;100693.41;;;11.34;64.05
30875;BME280;17581;43.222;27.924;2024-02-14T10:45:20;100669.69;;;11.28;63.46
30875;BME280;17581;43.222;27.924;2024-02-14T10:47:46;100710.28;;;11.36;62.51
30875;BME280;17581;43.222;27.924;2024-02-14T10:50:15;100661.94;;;11.03;62.90
30875;BME280;17581;43.222;27.924;2024-02-14T10:52:41;100686.59;;;11.19;63.15
30875;BME280;17581;43.222;27.924;2024-02-14T10:55:08;100703.78;;;11.38;63.47
30875;BME280;17581;43.222;27.924;2024-02-14T10:57:34;100728.16;;;11.37;62.70
30875;BME280;17581;43.222;27.924;2024-02-14T11:00:03;100655.13;;;10.87;63.18
30875;BME280;17581;43.222;27.924;2024-02-14T11:02:31;100711.56;;;11.21;62.93
30875;BME280;17581;43.222;27.924;2024-02-14T11:04:58;100711.03;;;11.27;62.56
30875;BME280;17581;43.222;27.924;2024-02-14T11:07:23;100705.66;;;11.27;63.12
30875;BME280;17581;43.222;27.924;2024-02-14T11:10:07;100718.41;;;11.25;62.73
30875;BME280;17581;43.222;27.924;2024-02-14T11:12:37;100648.28;;;10.83;62.65
30875;BME280;17581;43.222;27.924;2024-02-14T11:17:37;100729.69;;;11.19;62.65
30875;BME280;17581;43.222;27.924;2024-02-14T11:20:16;100731.75;;;11.15;61.99
30875;BME280;17581;43.222;27.924;2024-02-14T11:23:04;100722.22;;;11.11;62.72
30875;BME280;17581;43.222;27.924;2024-02-14T11:25:32;100714.66;;;11.05;63.24
30875;BME280;17581;43.222;27.924;2024-02-14T11:28:16;100726.84;;;11.20;62.81
30875;BME280;17581;43.222;27.924;2024-02-14T11:30:43;100729.69;;;11.19;62.07
30875;BME280;17581;43.222;27.924;2024-02-14T11:33:24;100710.59;;;11.11;62.55
30875;BME280;17581;43.222;27.924;2024-02-14T11:35:53;100701.34;;;11.04;61.41
30875;BME280;17581;43.222;27.924;2024-02-14T11:38:25;100676.16;;;10.93;61.93
30875;BME280;17581;43.222;27.924;2024-02-14T11:40:55;100727.44;;;11.24;61.62
30875;BME280;17581;43.222;27.924;2024-02-14T11:43:24;100724.25;;;11.30;61.60
30875;BME280;17581;43.222;27.924;2024-02-14T11:45:50;100693.94;;;11.17;61.71
30875;BME280;17581;43.222;27.924;2024-02-14T11:48:18;100699.06;;;11.31;61.72
30875;BME280;17581;43.222;27.924;2024-02-14T11:50:45;100724.28;;;11.51;61.28
30875;BME280;17581;43.222;27.924;2024-02-14T11:53:12;100723.19;;;11.53;60.65
30875;BME280;17581;43.222;27.924;2024-02-14T11:55:39;100716.13;;;11.41;60.37
30875;BME280;17581;43.222;27.924;2024-02-14T11:58:11;100718.56;;;11.44;60.67
30875;BME280;17581;43.222;27.924;2024-02-14T12:00:38;100743.81;;;11.43;60.59
30875;BME280;17581;43.222;27.924;2024-02-14T12:03:07;100718.88;;;11.30;61.13
30875;BME280;17581;43.222;27.924;2024-02-14T12:05:33;100672.50;;;10.95;61.11
30875;BME280;17581;43.222;27.924;2024-02-14T12:08:00;100716.22;;;11.19;61.78
30875;BME280;17581;43.222;27.924;2024-02-14T12:10:26;100712.44;;;11.10;61.96
30875;BME280;17581;43.222;27.924;2024-02-14T12:12:52;100686.91;;;10.82;62.31
30875;BME280;17581;43.222;27.924;2024-02-14T12:15:17;100685.09;;;10.83;62.24
30875;BME280;17581;43.222;27.924;2024-02-14T12:17:45;100723.34;;;11.09;62.41
30875;BME280;17581;43.222;27.924;2024-02-14T12:20:12;100705.97;;;11.02;61.93
30875;BME280;17581;43.222;27.924;2024-02-14T12:22:40;100696.66;;;11.06;61.91
30875;BME280;17581;43.222;27.924;2024-02-14T12:25:08;100690.06;;;10.99;60.80
30875;BME280;17581;43.222;27.924;2024-02-14T12:27:37;100697.44;;;10.97;61.14
30875;BME280;17581;43.222;27.924;2024-02-14T12:30:06;100724.06;;;11.11;61.26
30875;BME280;17581;43.222;27.924;2024-02-14T12:32:32;100730.44;;;11.10;61.62
30875;BME280;17581;43.222;27.924;2024-02-14T12:34:58;100707.97;;;10.77;61.82
30875;BME280;17581;43.222;27.924;2024-02-14T12:37:24;100679.38;;;10.65;61.89
30875;BME280;17581;43.222;27.924;2024-02-14T12:39:50;100648.59;;;10.47;61.96
30875;BME280;17581;43.222;27.924;2024-02-14T12:42:16;100737.66;;;10.98;62.03